sensor_id;sensor_type;location;lat;lon;timestamp;P1;durP1;ratioP1;P2;durP2;ratioP2
72123;SDS011;59998;37.126;-8.538;2022-08-21T00:04:20;18.8;;;8.2;;
72123;SDS011;59998;37.126;-8.538;2022-08-21T00:09:07;18.2;;;8.7;;
72123;SDS011;59998;37.126;-8.538;2022-08-21T00:13:54;19.8;;;9.1;;
72123;SDS011;59998;37.126;-8.538;2022-08-21T00:18:40;18.6;;;9.1;;
72123;SDS011;59998;37.126;-8.538;2022-08-21T00:23:27;17.3;;;9.4;;
72123;SDS011;59998;37.126;-8.538;2022-08-21T00:28:13;18.1;;;9.4;;
72123;SDS011;59998;37.126;-8.538;2022-08-21T00:33:02;14.7;;;9.1;;
72123;SDS011;59998;37.126;-8.538;2022-08-21T00:37:50;13.5;;;9.0;;
72123;SDS011;59998;37.126;-8.538;2022-08-21T00:42:36;15.4;;;9.4;;
72123;SDS011;59998;37.126;-8.538;2022-08-21T00:47:22;14.5;;;9.3;;
72123;SDS011;59998;37.126;-8.538;2022-08-21T00:52:11;17.2;;;9.0;;
72123;SDS011;59998;37.126;-8.538;2022-08-21T00:57:01;20.4;;;9.3;;
72123;SDS011;59998;37.126;-8.538;2022-08-21T01:01:50;17.9;;;9.7;;
72123;SDS011;59998;37.126;-8.538;2022-08-21T01:06:36;15.5;;;9.3;;
72123;SDS011;59998;37.126;-8.538;2022-08-21T01:11:23;16.1;;;8.5;;
72123;SDS011;59998;37.126;-8.538;2022-08-21T01:16:09;16.8;;;8.4;;
72123;SDS011;59998;37.126;-8.538;2022-08-21T01:21:07;19.1;;;8.9;;
72123;SDS011;59998;37.126;-8.538;2022-08-21T01:25:54;18.7;;;9.1;;
72123;SDS011;59998;37.126;-8.538;2022-08-21T01:30:41;17.2;;;8.7;;
72123;SDS011;59998;37.126;-8.538;2022-08-21T01:35:28;17.0;;;9.1;;
72123;SDS011;59998;37.126;-8.538;2022-08-21T01:40:15;15.6;;;9.2;;
72123;SDS011;59998;37.126;-8.538;2022-08-21T01:45:03;16.5;;;8.8;;
72123;SDS011;59998;37.126;-8.538;2022-08-21T01:49:53;16.6;;;8.9;;
72123;SDS011;59998;37.126;-8.538;2022-08-21T01:54:40;16.4;;;8.8;;
72123;SDS011;59998;37.126;-8.538;2022-08-21T01:59:29;15.7;;;8.3;;
72123;SDS011;59998;37.126;-8.538;2022-08-21T02:04:15;13.9;;;8.0;;
72123;SDS011;59998;37.126;-8.538;2022-08-21T02:09:02;15.7;;;8.1;;
72123;SDS011;59998;37.126;-8.538;2022-08-21T02:13:49;17.6;;;8.6;;
72123;SDS011;59998;37.126;-8.538;2022-08-21T02:18:35;16.5;;;8.5;;
72123;SDS011;59998;37.126;-8.538;2022-08-21T02:23:22;17.7;;;8.6;;
72123;SDS011;59998;37.126;-8.538;2022-08-21T02:28:12;16.8;;;8.6;;
72123;SDS011;59998;37.126;-8.538;2022-08-21T02:33:00;15.7;;;8.5;;
72123;SDS011;59998;37.126;-8.538;2022-08-21T02:37:51;15.5;;;8.9;;
72123;SDS011;59998;37.126;-8.538;2022-08-21T02:42:39;17.8;;;9.1;;
72123;SDS011;59998;37.126;-8.538;2022-08-21T02:47:25;21.0;;;9.1;;
72123;SDS011;59998;37.126;-8.538;2022-08-21T02:52:14;16.8;;;8.5;;
72123;SDS011;59998;37.126;-8.538;2022-08-21T02:57:00;14.0;;;7.9;;
72123;SDS011;59998;37.126;-8.538;2022-08-21T03:01:46;14.0;;;7.9;;
72123;SDS011;59998;37.126;-8.538;2022-08-21T03:06:33;15.1;;;8.2;;
72123;SDS011;59998;37.126;-8.538;2022-08-21T03:11:19;18.2;;;8.2;;
72123;SDS011;59998;37.126;-8.538;2022-08-21T03:16:05;16.9;;;8.1;;
72123;SDS011;59998;37.126;-8.538;2022-08-21T03:20:52;16.6;;;8.2;;
72123;SDS011;59998;37.126;-8.538;2022-08-21T03:25:39;16.3;;;8.0;;
72123;SDS011;59998;37.126;-8.538;2022-08-21T03:30:26;15.1;;;8.1;;
72123;SDS011;59998;37.126;-8.538;2022-08-21T03:35:12;14.6;;;7.8;;
72123;SDS011;59998;37.126;-8.538;2022-08-21T03:39:59;12.8;;;7.5;;
72123;SDS011;59998;37.126;-8.538;2022-08-21T03:44:45;12.7;;;7.7;;
72123;SDS011;59998;37.126;-8.538;2022-08-21T03:49:35;16.3;;;7.8;;
72123;SDS011;59998;37.126;-8.538;2022-08-21T03:54:21;16.3;;;7.7;;
72123;SDS011;59998;37.126;-8.538;2022-08-21T03:59:07;13.9;;;7.5;;
72123;SDS011;59998;37.126;-8.538;2022-08-21T04:03:57;12.0;;;7.1;;
72123;SDS011;59998;37.126;-8.538;2022-08-21T04:08:44;10.3;;;6.7;;
72123;SDS011;59998;37.126;-8.538;2022-08-21T04:13:30;12.3;;;7.2;;
72123;SDS011;59998;37.126;-8.538;2022-08-21T04:18:19;14.7;;;8.1;;
72123;SDS011;59998;37.126;-8.538;2022-08-21T04:23:05;14.5;;;7.9;;
72123;SDS011;59998;37.126;-8.538;2022-08-21T04:27:55;15.0;;;7.6;;
72123;SDS011;59998;37.126;-8.538;2022-08-21T04:32:43;14.9;;;8.1;;
72123;SDS011;59998;37.126;-8.538;2022-08-21T04:37:31;13.2;;;7.6;;
72123;SDS011;59998;37.126;-8.538;2022-08-21T04:42:17;14.0;;;7.6;;
72123;SDS011;59998;37.126;-8.538;2022-08-21T04:47:04;12.4;;;7.3;;
72123;SDS011;59998;37.126;-8.538;2022-08-21T04:51:50;9.0;;;6.1;;
72123;SDS011;59998;37.126;-8.538;2022-08-21T04:56:39;9.8;;;5.9;;
72123;SDS011;59998;37.126;-8.538;2022-08-21T05:01:29;10.9;;;5.9;;
72123;SDS011;59998;37.126;-8.538;2022-08-21T05:06:18;11.2;;;5.8;;
72123;SDS011;59998;37.126;-8.538;2022-08-21T05:11:06;9.8;;;5.4;;
72123;SDS011;59998;37.126;-8.538;2022-08-21T05:15:52;8.7;;;5.6;;
72123;SDS011;59998;37.126;-8.538;2022-08-21T05:20:39;9.3;;;5.8;;
72123;SDS011;59998;37.126;-8.538;2022-08-21T05:25:26;10.3;;;5.7;;
72123;SDS011;59998;37.126;-8.538;2022-08-21T05:30:12;11.0;;;5.5;;
72123;SDS011;59998;37.126;-8.538;2022-08-21T05:34:59;9.6;;;5.1;;
72123;SDS011;59998;37.126;-8.538;2022-08-21T05:39:45;11.1;;;5.0;;
72123;SDS011;59998;37.126;-8.538;2022-08-21T05:44:32;10.3;;;4.9;;
72123;SDS011;59998;37.126;-8.538;2022-08-21T05:49:18;7.6;;;4.8;;
72123;SDS011;59998;37.126;-8.538;2022-08-21T05:54:05;9.3;;;4.7;;
72123;SDS011;59998;37.126;-8.538;2022-08-21T05:58:53;10.1;;;5.0;;
72123;SDS011;59998;37.126;-8.538;2022-08-21T06:03:41;9.6;;;5.4;;
72123;SDS011;59998;37.126;-8.538;2022-08-21T06:08:28;10.1;;;5.6;;
72123;SDS011;59998;37.126;-8.538;2022-08-21T06:13:15;8.7;;;5.1;;
72123;SDS011;59998;37.126;-8.538;2022-08-21T06:18:02;7.9;;;5.0;;
72123;SDS011;59998;37.126;-8.538;2022-08-21T06:22:49;7.6;;;5.1;;
72123;SDS011;59998;37.126;-8.538;2022-08-21T06:27:36;8.0;;;4.8;;
72123;SDS011;59998;37.126;-8.538;2022-08-21T06:32:22;10.2;;;5.1;;
72123;SDS011;59998;37.126;-8.538;2022-08-21T06:37:09;9.5;;;5.4;;
72123;SDS011;59998;37.126;-8.538;2022-08-21T06:41:55;9.4;;;5.5;;
72123;SDS011;59998;37.126;-8.538;2022-08-21T06:46:41;8.8;;;5.2;;
72123;SDS011;59998;37.126;-8.538;2022-08-21T06:51:27;9.1;;;5.4;;
72123;SDS011;59998;37.126;-8.538;2022-08-21T06:56:14;11.8;;;6.0;;
72123;SDS011;59998;37.126;-8.538;2022-08-21T07:01:03;10.8;;;5.9;;
72123;SDS011;59998;37.126;-8.538;2022-08-21T07:05:50;10.4;;;5.7;;
72123;SDS011;59998;37.126;-8.538;2022-08-21T07:10:37;11.7;;;5.7;;
72123;SDS011;59998;37.126;-8.538;2022-08-21T07:15:25;11.0;;;5.8;;
72123;SDS011;59998;37.126;-8.538;2022-08-21T07:20:12;13.0;;;5.8;;
72123;SDS011;59998;37.126;-8.538;2022-08-21T07:24:58;12.2;;;5.7;;
72123;SDS011;59998;37.126;-8.538;2022-08-21T07:29:44;10.8;;;6.1;;
72123;SDS011;59998;37.126;-8.538;2022-08-21T07:34:31;11.9;;;6.4;;
72123;SDS011;59998;37.126;-8.538;2022-08-21T07:39:17;11.1;;;6.1;;
72123;SDS011;59998;37.126;-8.538;2022-08-21T07:44:04;10.5;;;5.5;;
72123;SDS011;59998;37.126;-8.538;2022-08-21T07:48:50;9.0;;;5.4;;
72123;SDS011;59998;37.126;-8.538;2022-08-21T07:53:37;8.8;;;5.2;;
72123;SDS011;59998;37.126;-8.538;2022-08-21T07:58:24;9.3;;;5.2;;
72123;SDS011;59998;37.126;-8.538;2022-08-21T08:03:10;8.4;;;5.2;;
72123;SDS011;59998;37.126;-8.538;2022-08-21T08:07:57;8.1;;;5.1;;
72123;SDS011;59998;37.126;-8.538;2022-08-21T08:12:44;8.4;;;4.8;;
72123;SDS011;59998;37.126;-8.538;2022-08-21T08:17:31;7.5;;;4.8;;
72123;SDS011;59998;37.126;-8.538;2022-08-21T08:22:18;9.5;;;5.1;;
72123;SDS011;59998;37.126;-8.538;2022-08-21T08:27:06;9.3;;;4.9;;
72123;SDS011;59998;37.126;-8.538;2022-08-21T08:31:52;8.8;;;4.9;;
72123;SDS011;59998;37.126;-8.538;2022-08-21T08:36:39;9.8;;;4.9;;
72123;SDS011;59998;37.126;-8.538;2022-08-21T08:41:25;7.4;;;4.5;;
72123;SDS011;59998;37.126;-8.538;2022-08-21T08:46:13;6.2;;;4.4;;
72123;SDS011;59998;37.126;-8.538;2022-08-21T08:51:02;6.1;;;4.3;;
72123;SDS011;59998;37.126;-8.538;2022-08-21T08:55:52;7.2;;;4.3;;
72123;SDS011;59998;37.126;-8.538;2022-08-21T09:00:38;8.6;;;4.5;;
72123;SDS011;59998;37.126;-8.538;2022-08-21T09:05:28;12.2;;;4.6;;
72123;SDS011;59998;37.126;-8.538;2022-08-21T09:10:16;11.4;;;4.6;;
72123;SDS011;59998;37.126;-8.538;2022-08-21T09:15:06;6.6;;;4.5;;
72123;SDS011;59998;37.126;-8.538;2022-08-21T09:20:02;6.5;;;4.5;;
72123;SDS011;59998;37.126;-8.538;2022-08-21T09:25:08;6.8;;;4.4;;
72123;SDS011;59998;37.126;-8.538;2022-08-21T09:30:04;6.7;;;4.4;;
72123;SDS011;59998;37.126;-8.538;2022-08-21T09:34:59;7.1;;;4.6;;
72123;SDS011;59998;37.126;-8.538;2022-08-21T09:39:49;8.0;;;4.5;;
72123;SDS011;59998;37.126;-8.538;2022-08-21T09:44:36;8.6;;;4.5;;
72123;SDS011;59998;37.126;-8.538;2022-08-21T09:49:34;9.0;;;4.7;;
72123;SDS011;59998;37.126;-8.538;2022-08-21T09:54:20;7.9;;;4.6;;
72123;SDS011;59998;37.126;-8.538;2022-08-21T09:59:16;6.7;;;4.4;;
72123;SDS011;59998;37.126;-8.538;2022-08-21T10:04:06;6.6;;;4.4;;
72123;SDS011;59998;37.126;-8.538;2022-08-21T10:09:02;9.4;;;4.5;;
72123;SDS011;59998;37.126;-8.538;2022-08-21T10:13:55;10.1;;;4.4;;
72123;SDS011;59998;37.126;-8.538;2022-08-21T10:18:53;9.5;;;4.4;;
72123;SDS011;59998;37.126;-8.538;2022-08-21T10:23:54;11.0;;;4.7;;
72123;SDS011;59998;37.126;-8.538;2022-08-21T10:28:48;8.9;;;4.8;;
72123;SDS011;59998;37.126;-8.538;2022-08-21T10:33:44;10.9;;;4.9;;
72123;SDS011;59998;37.126;-8.538;2022-08-21T10:38:52;11.0;;;4.8;;
72123;SDS011;59998;37.126;-8.538;2022-08-21T10:43:43;7.1;;;4.5;;
72123;SDS011;59998;37.126;-8.538;2022-08-21T10:48:39;6.9;;;4.5;;
72123;SDS011;59998;37.126;-8.538;2022-08-21T10:53:36;7.0;;;4.5;;
72123;SDS011;59998;37.126;-8.538;2022-08-21T10:58:43;6.9;;;4.5;;
72123;SDS011;59998;37.126;-8.538;2022-08-21T11:03:32;8.3;;;4.6;;
72123;SDS011;59998;37.126;-8.538;2022-08-21T11:08:21;8.2;;;4.6;;
72123;SDS011;59998;37.126;-8.538;2022-08-21T11:13:11;7.5;;;4.6;;
72123;SDS011;59998;37.126;-8.538;2022-08-21T11:18:04;7.0;;;4.5;;
72123;SDS011;59998;37.126;-8.538;2022-08-21T11:23:11;6.2;;;4.3;;
72123;SDS011;59998;37.126;-8.538;2022-08-21T11:28:03;6.5;;;4.3;;
72123;SDS011;59998;37.126;-8.538;2022-08-21T11:32:57;6.4;;;4.5;;
72123;SDS011;59998;37.126;-8.538;2022-08-21T11:37:54;6.7;;;4.6;;
72123;SDS011;59998;37.126;-8.538;2022-08-21T11:42:47;6.7;;;4.5;;
72123;SDS011;59998;37.126;-8.538;2022-08-21T11:47:44;6.2;;;4.3;;
72123;SDS011;59998;37.126;-8.538;2022-08-21T11:52:42;6.0;;;4.5;;
72123;SDS011;59998;37.126;-8.538;2022-08-21T11:57:34;6.0;;;4.5;;
72123;SDS011;59998;37.126;-8.538;2022-08-21T12:02:28;6.5;;;4.6;;
72123;SDS011;59998;37.126;-8.538;2022-08-21T12:07:28;8.1;;;5.0;;
72123;SDS011;59998;37.126;-8.538;2022-08-21T12:12:25;8.6;;;4.9;;
72123;SDS011;59998;37.126;-8.538;2022-08-21T12:17:18;7.6;;;4.8;;
72123;SDS011;59998;37.126;-8.538;2022-08-21T12:22:10;10.6;;;4.9;;
72123;SDS011;59998;37.126;-8.538;2022-08-21T12:27:00;11.5;;;5.2;;
72123;SDS011;59998;37.126;-8.538;2022-08-21T12:31:56;10.0;;;5.5;;
72123;SDS011;59998;37.126;-8.538;2022-08-21T12:36:44;11.6;;;5.5;;
72123;SDS011;59998;37.126;-8.538;2022-08-21T12:41:38;13.1;;;5.5;;
72123;SDS011;59998;37.126;-8.538;2022-08-21T12:46:34;12.6;;;5.5;;
72123;SDS011;59998;37.126;-8.538;2022-08-21T12:51:26;10.7;;;5.3;;
72123;SDS011;59998;37.126;-8.538;2022-08-21T12:56:16;11.8;;;5.3;;
72123;SDS011;59998;37.126;-8.538;2022-08-21T13:01:04;12.4;;;5.5;;
72123;SDS011;59998;37.126;-8.538;2022-08-21T13:05:53;12.8;;;5.7;;
72123;SDS011;59998;37.126;-8.538;2022-08-21T13:10:40;13.8;;;5.6;;
72123;SDS011;59998;37.126;-8.538;2022-08-21T13:15:28;11.5;;;5.5;;
72123;SDS011;59998;37.126;-8.538;2022-08-21T13:20:21;8.9;;;5.4;;
72123;SDS011;59998;37.126;-8.538;2022-08-21T13:25:12;8.5;;;5.3;;
72123;SDS011;59998;37.126;-8.538;2022-08-21T13:30:07;10.2;;;5.6;;
72123;SDS011;59998;37.126;-8.538;2022-08-21T13:34:54;10.3;;;5.5;;
72123;SDS011;59998;37.126;-8.538;2022-08-21T13:39:40;8.7;;;5.3;;
72123;SDS011;59998;37.126;-8.538;2022-08-21T13:44:34;9.1;;;5.4;;
72123;SDS011;59998;37.126;-8.538;2022-08-21T13:49:22;12.1;;;5.5;;
72123;SDS011;59998;37.126;-8.538;2022-08-21T13:54:20;12.0;;;5.6;;
72123;SDS011;59998;37.126;-8.538;2022-08-21T13:59:07;10.5;;;5.8;;
72123;SDS011;59998;37.126;-8.538;2022-08-21T14:03:55;11.4;;;5.6;;
72123;SDS011;59998;37.126;-8.538;2022-08-21T14:08:49;11.1;;;5.4;;
72123;SDS011;59998;37.126;-8.538;2022-08-21T14:13:39;10.7;;;5.7;;
72123;SDS011;59998;37.126;-8.538;2022-08-21T14:18:27;10.5;;;6.0;;
72123;SDS011;59998;37.126;-8.538;2022-08-21T14:23:22;9.9;;;5.8;;
72123;SDS011;59998;37.126;-8.538;2022-08-21T14:28:14;9.9;;;5.4;;
72123;SDS011;59998;37.126;-8.538;2022-08-21T14:33:07;12.1;;;5.6;;
72123;SDS011;59998;37.126;-8.538;2022-08-21T14:37:56;11.6;;;5.8;;
72123;SDS011;59998;37.126;-8.538;2022-08-21T14:42:43;10.1;;;5.6;;
72123;SDS011;59998;37.126;-8.538;2022-08-21T14:47:30;10.5;;;5.6;;
72123;SDS011;59998;37.126;-8.538;2022-08-21T14:52:16;10.8;;;5.6;;
72123;SDS011;59998;37.126;-8.538;2022-08-21T14:57:04;10.9;;;5.4;;
72123;SDS011;59998;37.126;-8.538;2022-08-21T15:01:52;13.3;;;5.4;;
72123;SDS011;59998;37.126;-8.538;2022-08-21T15:06:38;13.4;;;5.6;;
72123;SDS011;59998;37.126;-8.538;2022-08-21T15:11:24;9.2;;;5.4;;
72123;SDS011;59998;37.126;-8.538;2022-08-21T15:16:12;9.8;;;5.4;;
72123;SDS011;59998;37.126;-8.538;2022-08-21T15:20:59;10.8;;;5.5;;
72123;SDS011;59998;37.126;-8.538;2022-08-21T15:25:46;10.0;;;5.5;;
72123;SDS011;59998;37.126;-8.538;2022-08-21T15:30:34;10.0;;;5.3;;
72123;SDS011;59998;37.126;-8.538;2022-08-21T15:35:21;11.9;;;5.5;;
72123;SDS011;59998;37.126;-8.538;2022-08-21T15:40:07;13.6;;;5.6;;
72123;SDS011;59998;37.126;-8.538;2022-08-21T15:44:55;12.6;;;5.7;;
72123;SDS011;59998;37.126;-8.538;2022-08-21T15:49:42;11.7;;;5.8;;
72123;SDS011;59998;37.126;-8.538;2022-08-21T15:54:29;11.2;;;5.4;;
72123;SDS011;59998;37.126;-8.538;2022-08-21T15:59:16;12.1;;;5.2;;
72123;SDS011;59998;37.126;-8.538;2022-08-21T16:04:05;11.9;;;5.2;;
72123;SDS011;59998;37.126;-8.538;2022-08-21T16:08:53;9.7;;;5.1;;
72123;SDS011;59998;37.126;-8.538;2022-08-21T16:13:40;11.0;;;5.3;;
72123;SDS011;59998;37.126;-8.538;2022-08-21T16:18:30;11.3;;;5.2;;
72123;SDS011;59998;37.126;-8.538;2022-08-21T16:23:17;12.5;;;5.2;;
72123;SDS011;59998;37.126;-8.538;2022-08-21T16:28:05;11.9;;;5.0;;
72123;SDS011;59998;37.126;-8.538;2022-08-21T16:32:53;10.2;;;5.0;;
72123;SDS011;59998;37.126;-8.538;2022-08-21T16:37:41;12.0;;;5.2;;
72123;SDS011;59998;37.126;-8.538;2022-08-21T16:42:27;10.2;;;5.2;;
72123;SDS011;59998;37.126;-8.538;2022-08-21T16:47:14;10.6;;;5.4;;
72123;SDS011;59998;37.126;-8.538;2022-08-21T16:52:01;11.5;;;5.4;;
72123;SDS011;59998;37.126;-8.538;2022-08-21T16:56:48;12.2;;;4.9;;
72123;SDS011;59998;37.126;-8.538;2022-08-21T17:01:36;11.1;;;4.7;;
72123;SDS011;59998;37.126;-8.538;2022-08-21T17:06:25;8.0;;;4.8;;
72123;SDS011;59998;37.126;-8.538;2022-08-21T17:11:13;10.5;;;5.1;;
72123;SDS011;59998;37.126;-8.538;2022-08-21T17:16:04;13.3;;;5.3;;
72123;SDS011;59998;37.126;-8.538;2022-08-21T17:20:51;12.3;;;5.1;;
72123;SDS011;59998;37.126;-8.538;2022-08-21T17:25:39;11.8;;;5.1;;
72123;SDS011;59998;37.126;-8.538;2022-08-21T17:30:28;10.8;;;5.1;;
72123;SDS011;59998;37.126;-8.538;2022-08-21T17:35:15;10.7;;;4.9;;
72123;SDS011;59998;37.126;-8.538;2022-08-21T17:40:05;10.3;;;5.1;;
72123;SDS011;59998;37.126;-8.538;2022-08-21T17:44:53;9.1;;;5.3;;
72123;SDS011;59998;37.126;-8.538;2022-08-21T17:49:40;9.5;;;5.3;;
72123;SDS011;59998;37.126;-8.538;2022-08-21T17:54:27;11.0;;;5.4;;
72123;SDS011;59998;37.126;-8.538;2022-08-21T17:59:14;12.0;;;5.4;;
72123;SDS011;59998;37.126;-8.538;2022-08-21T18:04:03;12.8;;;5.4;;
72123;SDS011;59998;37.126;-8.538;2022-08-21T18:08:49;12.0;;;5.5;;
72123;SDS011;59998;37.126;-8.538;2022-08-21T18:13:36;11.2;;;5.4;;
72123;SDS011;59998;37.126;-8.538;2022-08-21T18:18:25;10.7;;;5.4;;
72123;SDS011;59998;37.126;-8.538;2022-08-21T18:23:16;8.7;;;5.3;;
72123;SDS011;59998;37.126;-8.538;2022-08-21T18:28:05;9.9;;;5.3;;
72123;SDS011;59998;37.126;-8.538;2022-08-21T18:32:53;12.3;;;5.3;;
72123;SDS011;59998;37.126;-8.538;2022-08-21T18:37:40;11.8;;;5.5;;
72123;SDS011;59998;37.126;-8.538;2022-08-21T18:42:26;10.6;;;5.6;;
72123;SDS011;59998;37.126;-8.538;2022-08-21T18:47:17;10.7;;;5.3;;
72123;SDS011;59998;37.126;-8.538;2022-08-21T18:52:07;10.8;;;5.3;;
72123;SDS011;59998;37.126;-8.538;2022-08-21T18:56:56;11.1;;;5.3;;
72123;SDS011;59998;37.126;-8.538;2022-08-21T19:01:42;10.6;;;5.3;;
72123;SDS011;59998;37.126;-8.538;2022-08-21T19:06:30;10.3;;;5.7;;
72123;SDS011;59998;37.126;-8.538;2022-08-21T19:11:16;12.2;;;6.1;;
72123;SDS011;59998;37.126;-8.538;2022-08-21T19:16:03;13.3;;;5.9;;
72123;SDS011;59998;37.126;-8.538;2022-08-21T19:20:50;10.7;;;5.4;;
72123;SDS011;59998;37.126;-8.538;2022-08-21T19:25:36;9.4;;;5.1;;
72123;SDS011;59998;37.126;-8.538;2022-08-21T19:30:25;10.9;;;5.4;;
72123;SDS011;59998;37.126;-8.538;2022-08-21T19:35:12;12.4;;;6.0;;
72123;SDS011;59998;37.126;-8.538;2022-08-21T19:39:58;14.7;;;6.1;;
72123;SDS011;59998;37.126;-8.538;2022-08-21T19:44:45;14.1;;;5.7;;
72123;SDS011;59998;37.126;-8.538;2022-08-21T19:49:32;14.1;;;6.1;;
72123;SDS011;59998;37.126;-8.538;2022-08-21T19:54:20;14.0;;;6.3;;
72123;SDS011;59998;37.126;-8.538;2022-08-21T19:59:08;10.6;;;5.7;;
72123;SDS011;59998;37.126;-8.538;2022-08-21T20:03:55;12.5;;;5.8;;
72123;SDS011;59998;37.126;-8.538;2022-08-21T20:08:41;14.4;;;6.1;;
72123;SDS011;59998;37.126;-8.538;2022-08-21T20:13:29;12.2;;;6.0;;
72123;SDS011;59998;37.126;-8.538;2022-08-21T20:18:17;13.4;;;6.3;;
72123;SDS011;59998;37.126;-8.538;2022-08-21T20:23:03;13.3;;;6.9;;
72123;SDS011;59998;37.126;-8.538;2022-08-21T20:27:52;12.6;;;6.9;;
72123;SDS011;59998;37.126;-8.538;2022-08-21T20:32:39;13.6;;;6.6;;
72123;SDS011;59998;37.126;-8.538;2022-08-21T20:37:26;14.2;;;6.9;;
72123;SDS011;59998;37.126;-8.538;2022-08-21T20:42:12;13.2;;;7.3;;
72123;SDS011;59998;37.126;-8.538;2022-08-21T20:46:59;10.9;;;7.3;;
72123;SDS011;59998;37.126;-8.538;2022-08-21T20:51:46;12.2;;;7.2;;
72123;SDS011;59998;37.126;-8.538;2022-08-21T20:56:39;13.1;;;7.4;;
72123;SDS011;59998;37.126;-8.538;2022-08-21T21:01:32;14.7;;;7.7;;
72123;SDS011;59998;37.126;-8.538;2022-08-21T21:06:20;17.7;;;7.8;;
72123;SDS011;59998;37.126;-8.538;2022-08-21T21:11:10;16.5;;;7.5;;
72123;SDS011;59998;37.126;-8.538;2022-08-21T21:16:01;13.9;;;7.6;;
72123;SDS011;59998;37.126;-8.538;2022-08-21T21:20:51;12.2;;;7.6;;
72123;SDS011;59998;37.126;-8.538;2022-08-21T21:25:44;11.9;;;7.6;;
72123;SDS011;59998;37.126;-8.538;2022-08-21T21:30:35;16.0;;;7.9;;
72123;SDS011;59998;37.126;-8.538;2022-08-21T21:35:28;15.9;;;8.0;;
72123;SDS011;59998;37.126;-8.538;2022-08-21T21:40:24;13.4;;;7.9;;
72123;SDS011;59998;37.126;-8.538;2022-08-21T21:45:17;12.9;;;7.8;;
72123;SDS011;59998;37.126;-8.538;2022-08-21T21:50:17;13.6;;;8.1;;
72123;SDS011;59998;37.126;-8.538;2022-08-21T21:55:11;13.0;;;8.1;;
72123;SDS011;59998;37.126;-8.538;2022-08-21T22:00:04;11.2;;;7.7;;
72123;SDS011;59998;37.126;-8.538;2022-08-21T22:04:56;11.2;;;7.5;;
72123;SDS011;59998;37.126;-8.538;2022-08-21T22:09:51;10.1;;;7.3;;
72123;SDS011;59998;37.126;-8.538;2022-08-21T22:14:40;13.3;;;8.0;;
72123;SDS011;59998;37.126;-8.538;2022-08-21T22:19:27;14.7;;;8.2;;
72123;SDS011;59998;37.126;-8.538;2022-08-21T22:24:17;13.1;;;7.7;;
72123;SDS011;59998;37.126;-8.538;2022-08-21T22:29:07;12.1;;;7.4;;
72123;SDS011;59998;37.126;-8.538;2022-08-21T22:34:04;11.4;;;6.5;;
72123;SDS011;59998;37.126;-8.538;2022-08-21T22:38:52;11.6;;;6.2;;
72123;SDS011;59998;37.126;-8.538;2022-08-21T22:43:39;10.7;;;6.3;;
72123;SDS011;59998;37.126;-8.538;2022-08-21T22:48:49;11.2;;;6.5;;
72123;SDS011;59998;37.126;-8.538;2022-08-21T22:53:41;11.1;;;6.2;;
72123;SDS011;59998;37.126;-8.538;2022-08-21T22:58:31;9.3;;;5.8;;
72123;SDS011;59998;37.126;-8.538;2022-08-21T23:03:25;9.6;;;5.7;;
72123;SDS011;59998;37.126;-8.538;2022-08-21T23:08:25;10.3;;;5.9;;
72123;SDS011;59998;37.126;-8.538;2022-08-21T23:13:15;9.0;;;6.1;;
72123;SDS011;59998;37.126;-8.538;2022-08-21T23:18:03;8.4;;;5.8;;
72123;SDS011;59998;37.126;-8.538;2022-08-21T23:22:57;9.9;;;6.3;;
72123;SDS011;59998;37.126;-8.538;2022-08-21T23:27:52;9.9;;;6.4;;
72123;SDS011;59998;37.126;-8.538;2022-08-21T23:33:04;8.7;;;5.6;;
72123;SDS011;59998;37.126;-8.538;2022-08-21T23:37:58;9.3;;;5.7;;
72123;SDS011;59998;37.126;-8.538;2022-08-21T23:42:58;10.0;;;5.7;;
72123;SDS011;59998;37.126;-8.538;2022-08-21T23:47:52;9.6;;;5.5;;
72123;SDS011;59998;37.126;-8.538;2022-08-21T23:52:50;8.6;;;5.5;;
72123;SDS011;59998;37.126;-8.538;2022-08-21T23:57:46;9.7;;;6.2;;
